createdAt,value
2023-01-15T00:02:51.503Z,7.2
2023-01-15T00:07:51.477Z,7.2
2023-01-15T00:12:53.978Z,7.2
2023-01-15T00:17:51.484Z,7.2
2023-01-15T00:22:51.535Z,7.2
2023-01-15T00:27:51.958Z,7.2
2023-01-15T00:32:51.483Z,7.2
2023-01-15T00:37:51.437Z,7.2
2023-01-15T00:42:55.296Z,7.2
2023-01-15T00:47:51.464Z,7.2
2023-01-15T00:52:51.460Z,7.2
2023-01-15T00:57:52.024Z,7.2
2023-01-15T01:02:52.730Z,7.2
2023-01-15T01:07:51.431Z,7.1
2023-01-15T01:12:53.061Z,7.1
2023-01-15T01:17:57.007Z,7
2023-01-15T01:22:52.070Z,7
2023-01-15T01:27:53.791Z,7
2023-01-15T01:32:51.461Z,7
2023-01-15T01:37:51.399Z,7
2023-01-15T01:42:54.130Z,7
2023-01-15T01:47:51.444Z,7
2023-01-15T01:52:51.442Z,7
2023-01-15T01:57:52.751Z,7.1
2023-01-15T02:02:51.464Z,7.1
2023-01-15T02:07:51.420Z,7
2023-01-15T02:12:52.563Z,7
2023-01-15T02:17:51.440Z,7.1
2023-01-15T02:22:51.440Z,7
2023-01-15T02:27:52.180Z,7
2023-01-15T02:32:51.425Z,7
2023-01-15T02:37:51.491Z,7
2023-01-15T02:42:54.668Z,7
2023-01-15T02:47:51.647Z,7
2023-01-15T02:52:51.438Z,7
2023-01-15T02:57:51.848Z,7
2023-01-15T03:07:51.430Z,7
2023-01-15T03:12:52.930Z,7
2023-01-15T03:17:51.451Z,7
2023-01-15T03:22:51.470Z,7
2023-01-15T03:27:52.960Z,7
2023-01-15T03:32:51.473Z,7
2023-01-15T03:37:51.451Z,7
2023-01-15T03:42:52.088Z,7
2023-01-15T03:47:51.443Z,7
2023-01-15T03:52:51.466Z,7
2023-01-15T03:57:51.838Z,7
2023-01-15T04:02:51.451Z,7
2023-01-15T04:07:51.982Z,7
2023-01-15T04:12:53.479Z,7
2023-01-15T04:17:51.443Z,7
2023-01-15T04:22:51.553Z,7
2023-01-15T04:27:53.262Z,7
2023-01-15T04:32:52.459Z,7
2023-01-15T04:37:51.457Z,7
2023-01-15T04:42:52.179Z,7
2023-01-15T04:47:51.507Z,7
2023-01-15T04:52:51.452Z,7
2023-01-15T04:57:52.919Z,6.9
2023-01-15T05:02:51.581Z,6.9
2023-01-15T05:07:54.458Z,7
2023-01-15T05:12:53.804Z,7
2023-01-15T05:17:51.466Z,7
2023-01-15T05:22:52.452Z,7
2023-01-15T05:27:52.244Z,7
2023-01-15T05:32:51.494Z,7
2023-01-15T05:37:51.531Z,7
2023-01-15T05:42:53.989Z,6.9
2023-01-15T05:47:51.471Z,7
2023-01-15T05:52:51.531Z,7
2023-01-15T05:57:54.589Z,6.9
2023-01-15T06:02:51.607Z,6.9
2023-01-15T06:07:51.959Z,7
2023-01-15T06:12:53.397Z,7
2023-01-15T06:17:51.527Z,7
2023-01-15T06:22:51.496Z,7
2023-01-15T06:27:52.864Z,7
2023-01-15T06:32:51.478Z,7
2023-01-15T06:37:54.519Z,7
2023-01-15T06:42:52.471Z,6.9
2023-01-15T06:47:51.472Z,6.9
2023-01-15T06:52:51.479Z,7
2023-01-15T06:57:52.886Z,7
2023-01-15T07:02:51.964Z,6.9
2023-01-15T07:07:51.509Z,7
2023-01-15T07:12:54.035Z,6.9
2023-01-15T07:17:51.527Z,7
2023-01-15T07:22:51.558Z,7
2023-01-15T07:27:52.099Z,7
2023-01-15T07:32:51.521Z,7
2023-01-15T07:37:51.993Z,7
2023-01-15T07:42:52.608Z,7
2023-01-15T07:47:51.531Z,7
2023-01-15T07:52:54.562Z,7
2023-01-15T07:57:53.040Z,7
2023-01-15T08:02:51.573Z,7.1
2023-01-15T08:07:51.565Z,7
2023-01-15T08:12:56.391Z,7.1
2023-01-15T08:17:51.798Z,7.1
2023-01-15T08:22:51.528Z,7.1
2023-01-15T08:27:53.985Z,7.3
2023-01-15T08:32:51.723Z,7.6
2023-01-15T08:37:51.575Z,7.8
2023-01-15T08:42:52.372Z,7.9
2023-01-15T08:47:52.131Z,8
2023-01-15T08:52:51.556Z,9.3
2023-01-15T08:57:53.613Z,9.3
2023-01-15T09:02:52.795Z,9.3
2023-01-15T09:07:51.553Z,9.3
2023-01-15T09:12:53.866Z,8.4
2023-01-15T09:17:52.113Z,8.4
2023-01-15T09:22:51.545Z,8.4
2023-01-15T09:27:52.531Z,8.3
2023-01-15T09:37:54.669Z,8.4
2023-01-15T09:42:54.932Z,8.7
2023-01-15T09:47:54.673Z,9.5
2023-01-15T09:52:54.533Z,9.5
2023-01-15T09:57:55.731Z,8.7
2023-01-15T10:02:54.657Z,8.7
2023-01-15T10:07:54.533Z,9.5
2023-01-15T10:12:54.603Z,8.7
2023-01-15T10:17:54.630Z,8.5
2023-01-15T10:22:54.583Z,8.5
2023-01-15T10:27:54.589Z,8.7
2023-01-15T10:33:02.583Z,8.5
2023-01-15T10:37:54.649Z,8.5
2023-01-15T10:42:54.580Z,8.4
2023-01-15T10:47:54.576Z,8.5
2023-01-15T10:52:54.608Z,8.4
2023-01-15T10:58:09.705Z,8.3
2023-01-15T11:02:54.656Z,8.3
2023-01-15T11:08:28.567Z,8.3
2023-01-15T11:13:02.214Z,8.3
2023-01-15T11:17:54.563Z,8
2023-01-15T11:22:54.592Z,7.2
2023-01-15T11:27:54.885Z,7.2
2023-01-15T11:32:54.565Z,7.1
2023-01-15T11:37:54.560Z,7.1
2023-01-15T11:42:54.580Z,7.1
2023-01-15T11:47:54.593Z,7.1
2023-01-15T11:52:54.538Z,7.1
2023-01-15T11:57:54.822Z,7.1
2023-01-15T12:02:54.576Z,7.2
2023-01-15T12:07:54.547Z,7.2
2023-01-15T12:12:54.598Z,7.2
2023-01-15T12:17:54.558Z,7.5
2023-01-15T12:22:54.564Z,7.3
2023-01-15T12:27:54.862Z,7.2
2023-01-15T12:32:54.559Z,7.1
2023-01-15T12:37:54.570Z,7.1
2023-01-15T12:42:54.636Z,7.1
2023-01-15T12:47:54.796Z,7.1
2023-01-15T12:52:55.945Z,7.1
2023-01-15T12:57:55.930Z,7.1
2023-01-15T13:02:54.743Z,7
2023-01-15T13:07:54.593Z,7.1
2023-01-15T13:12:54.948Z,7.1
2023-01-15T13:18:00.209Z,7.2
2023-01-15T13:22:54.574Z,7.2
2023-01-15T13:27:56.145Z,7.3
2023-01-15T13:32:54.788Z,7.2
2023-01-15T13:37:54.587Z,7.2
2023-01-15T13:42:59.598Z,7.1
2023-01-15T13:47:55.587Z,7
2023-01-15T13:52:54.666Z,7
2023-01-15T13:57:57.042Z,7
2023-01-15T14:02:54.621Z,7
2023-01-15T14:07:54.589Z,7.1
2023-01-15T14:12:55.138Z,7.1
2023-01-15T14:17:56.276Z,7.1
2023-01-15T14:22:54.595Z,7.1
2023-01-15T14:27:54.639Z,7.1
2023-01-15T14:32:54.600Z,7.1
2023-01-15T14:37:54.600Z,7.1
2023-01-15T14:42:55.105Z,7.1
2023-01-15T14:47:54.602Z,7.1
2023-01-15T14:52:54.708Z,7.1
2023-01-15T14:57:57.307Z,7.2
2023-01-15T15:02:54.785Z,7.2
2023-01-15T15:07:55.537Z,7.2
2023-01-15T15:12:55.595Z,7.2
2023-01-15T15:17:55.591Z,7.2
2023-01-15T15:22:55.627Z,7.2
2023-01-15T15:27:55.591Z,7.2
2023-01-15T15:32:55.608Z,7.2
2023-01-15T15:37:55.631Z,7.2
2023-01-15T15:42:56.629Z,7.2
2023-01-15T15:47:55.586Z,7.1
2023-01-15T15:52:55.607Z,7.1
2023-01-15T15:57:55.677Z,7.2
2023-01-15T16:02:55.770Z,7.2
2023-01-15T16:07:55.633Z,7.3
2023-01-15T16:12:55.613Z,7.5
2023-01-15T16:17:55.624Z,7.5
2023-01-15T16:22:55.594Z,7.5
2023-01-15T16:27:55.621Z,7.5
2023-01-15T16:32:58.651Z,7.2
2023-01-15T16:37:55.683Z,7.2
2023-01-15T16:42:55.605Z,7.2
2023-01-15T16:47:55.789Z,7.1
2023-01-15T16:52:55.614Z,7.1
2023-01-15T16:57:55.684Z,7.1
2023-01-15T17:02:56.119Z,7.4
2023-01-15T17:07:55.630Z,7.4
2023-01-15T17:12:55.633Z,7.4
2023-01-15T17:17:55.662Z,7.4
2023-01-15T17:22:55.645Z,8
2023-01-15T17:27:57.133Z,8
2023-01-15T17:32:55.611Z,8
2023-01-15T17:37:55.704Z,8
2023-01-15T17:42:55.613Z,8.2
2023-01-15T17:47:55.647Z,9.4
2023-01-15T17:52:55.685Z,9
2023-01-15T17:57:56.641Z,9
2023-01-15T18:02:55.924Z,9
2023-01-15T18:07:55.642Z,9
2023-01-15T18:12:55.680Z,8.9
2023-01-15T18:17:55.683Z,8.7
2023-01-15T18:22:55.623Z,8.7
2023-01-15T18:27:55.670Z,8.7
2023-01-15T18:32:55.622Z,8.7
2023-01-15T18:37:55.636Z,8.7
2023-01-15T18:42:55.632Z,8.7
2023-01-15T18:47:55.661Z,8.7
2023-01-15T18:52:55.686Z,9
2023-01-15T18:57:56.273Z,9.7
2023-01-15T19:02:55.681Z,9.7
2023-01-15T19:07:55.638Z,9.7
2023-01-15T19:12:55.684Z,9.7
2023-01-15T19:17:55.660Z,9.7
2023-01-15T19:22:55.714Z,9.7
2023-01-15T19:27:55.641Z,9.6
2023-01-15T19:32:55.649Z,9.6
2023-01-15T19:37:55.664Z,9.4
2023-01-15T19:42:55.639Z,9.6
2023-01-15T19:47:55.670Z,9.6
2023-01-15T19:52:55.699Z,9.6
2023-01-15T19:57:56.638Z,9.6
2023-01-15T20:02:55.702Z,9.7
2023-01-15T20:07:55.651Z,11.4
2023-01-15T20:12:55.676Z,11.4
2023-01-15T20:17:55.663Z,11.4
2023-01-15T20:22:55.661Z,12.1
2023-01-15T20:27:55.648Z,12.1
2023-01-15T20:32:55.683Z,12.1
2023-01-15T20:37:55.665Z,12.1
2023-01-15T20:42:55.710Z,11.4
2023-01-15T20:47:55.765Z,11.4
2023-01-15T20:52:55.646Z,9.7
2023-01-15T20:57:56.150Z,9
2023-01-15T21:02:55.702Z,9
2023-01-15T21:07:55.756Z,9
2023-01-15T21:12:55.687Z,9.7
2023-01-15T21:17:55.648Z,9.7
2023-01-15T21:22:55.687Z,11.5
2023-01-15T21:27:55.669Z,11.5
2023-01-15T21:32:55.680Z,11.5
2023-01-15T21:37:55.770Z,11.2
2023-01-15T21:42:55.693Z,10.3
2023-01-15T21:47:55.669Z,9.9
2023-01-15T21:52:55.698Z,10.3
2023-01-15T21:57:57.906Z,9.9
2023-01-15T22:02:55.782Z,9.9
2023-01-15T22:07:55.702Z,9.9
2023-01-15T22:12:55.846Z,9.9
2023-01-15T22:17:55.673Z,9.9
2023-01-15T22:22:55.693Z,9.6
2023-01-15T22:27:55.684Z,9.6
2023-01-15T22:32:55.677Z,10
2023-01-15T22:37:55.695Z,9
2023-01-15T22:42:55.701Z,8.7
2023-01-15T22:47:55.696Z,8.7
2023-01-15T22:52:55.745Z,9
2023-01-15T22:57:59.020Z,9.5
2023-01-15T23:02:55.734Z,9.5
2023-01-15T23:07:56.018Z,9
2023-01-15T23:12:58.111Z,8.7
2023-01-15T23:17:55.709Z,8.7
2023-01-15T23:22:55.729Z,8
2023-01-15T23:27:55.760Z,8
2023-01-15T23:32:55.713Z,8
2023-01-15T23:37:56.213Z,8
2023-01-15T23:42:55.701Z,8
2023-01-15T23:47:55.678Z,8
2023-01-15T23:52:55.817Z,7.6
2023-01-15T23:57:57.575Z,7.6
